sensor_id;sensor_type;location;lat;lon;timestamp;P1;durP1;ratioP1;P2;durP2;ratioP2
57191;SDS011;43052;52.588;13.396;2022-12-08T00:00:44;15.15;;;7.63;;
57191;SDS011;43052;52.588;13.396;2022-12-08T00:03:09;14.18;;;7.43;;
57191;SDS011;43052;52.588;13.396;2022-12-08T00:05:34;16.85;;;8.80;;
57191;SDS011;43052;52.588;13.396;2022-12-08T00:08:18;15.20;;;8.40;;
57191;SDS011;43052;52.588;13.396;2022-12-08T00:11:02;16.08;;;8.35;;
57191;SDS011;43052;52.588;13.396;2022-12-08T00:13:27;17.83;;;8.20;;
57191;SDS011;43052;52.588;13.396;2022-12-08T00:15:58;17.58;;;8.45;;
57191;SDS011;43052;52.588;13.396;2022-12-08T00:18:24;26.45;;;13.35;;
57191;SDS011;43052;52.588;13.396;2022-12-08T00:20:53;17.95;;;8.85;;
57191;SDS011;43052;52.588;13.396;2022-12-08T00:23:19;16.50;;;7.47;;
57191;SDS011;43052;52.588;13.396;2022-12-08T00:25:44;13.48;;;7.78;;
57191;SDS011;43052;52.588;13.396;2022-12-08T00:28:10;15.90;;;8.15;;
57191;SDS011;43052;52.588;13.396;2022-12-08T00:30:38;15.85;;;7.75;;
57191;SDS011;43052;52.588;13.396;2022-12-08T00:33:04;15.43;;;8.05;;
57191;SDS011;43052;52.588;13.396;2022-12-08T00:35:29;17.60;;;8.30;;
57191;SDS011;43052;52.588;13.396;2022-12-08T00:37:54;17.92;;;8.85;;
57191;SDS011;43052;52.588;13.396;2022-12-08T00:40:19;17.73;;;9.00;;
57191;SDS011;43052;52.588;13.396;2022-12-08T00:42:45;16.95;;;8.35;;
57191;SDS011;43052;52.588;13.396;2022-12-08T00:45:10;15.55;;;8.45;;
57191;SDS011;43052;52.588;13.396;2022-12-08T00:47:35;17.02;;;9.18;;
57191;SDS011;43052;52.588;13.396;2022-12-08T00:50:01;15.68;;;7.80;;
57191;SDS011;43052;52.588;13.396;2022-12-08T00:52:26;16.48;;;8.10;;
57191;SDS011;43052;52.588;13.396;2022-12-08T00:54:51;16.52;;;7.88;;
57191;SDS011;43052;52.588;13.396;2022-12-08T00:57:16;13.95;;;8.43;;
57191;SDS011;43052;52.588;13.396;2022-12-08T00:59:41;14.68;;;8.15;;
57191;SDS011;43052;52.588;13.396;2022-12-08T01:02:07;16.08;;;7.80;;
57191;SDS011;43052;52.588;13.396;2022-12-08T01:04:32;15.90;;;8.00;;
57191;SDS011;43052;52.588;13.396;2022-12-08T01:06:57;14.40;;;7.93;;
57191;SDS011;43052;52.588;13.396;2022-12-08T01:09:22;18.60;;;8.63;;
57191;SDS011;43052;52.588;13.396;2022-12-08T01:11:48;15.75;;;8.55;;
57191;SDS011;43052;52.588;13.396;2022-12-08T01:14:13;15.95;;;8.73;;
57191;SDS011;43052;52.588;13.396;2022-12-08T01:16:39;15.32;;;8.52;;
57191;SDS011;43052;52.588;13.396;2022-12-08T01:19:05;15.55;;;8.20;;
57191;SDS011;43052;52.588;13.396;2022-12-08T01:21:30;15.13;;;7.88;;
57191;SDS011;43052;52.588;13.396;2022-12-08T01:23:57;14.60;;;8.25;;
57191;SDS011;43052;52.588;13.396;2022-12-08T01:26:24;17.70;;;8.55;;
57191;SDS011;43052;52.588;13.396;2022-12-08T01:28:49;14.32;;;8.25;;
57191;SDS011;43052;52.588;13.396;2022-12-08T01:31:15;14.88;;;8.38;;
57191;SDS011;43052;52.588;13.396;2022-12-08T01:33:43;15.07;;;8.18;;
57191;SDS011;43052;52.588;13.396;2022-12-08T01:36:09;16.80;;;9.82;;
57191;SDS011;43052;52.588;13.396;2022-12-08T01:38:44;17.85;;;8.43;;
57191;SDS011;43052;52.588;13.396;2022-12-08T01:41:09;15.60;;;8.55;;
57191;SDS011;43052;52.588;13.396;2022-12-08T01:43:49;14.82;;;8.55;;
57191;SDS011;43052;52.588;13.396;2022-12-08T01:46:20;19.23;;;9.45;;
57191;SDS011;43052;52.588;13.396;2022-12-08T01:48:46;17.52;;;9.45;;
57191;SDS011;43052;52.588;13.396;2022-12-08T01:51:12;16.17;;;9.02;;
57191;SDS011;43052;52.588;13.396;2022-12-08T01:53:37;17.35;;;8.93;;
57191;SDS011;43052;52.588;13.396;2022-12-08T01:56:10;18.35;;;9.68;;
57191;SDS011;43052;52.588;13.396;2022-12-08T01:58:41;17.45;;;8.82;;
57191;SDS011;43052;52.588;13.396;2022-12-08T02:01:10;14.93;;;8.77;;
57191;SDS011;43052;52.588;13.396;2022-12-08T02:06:22;16.33;;;8.98;;
57191;SDS011;43052;52.588;13.396;2022-12-08T02:08:48;16.63;;;9.30;;
57191;SDS011;43052;52.588;13.396;2022-12-08T02:11:14;15.95;;;8.60;;
57191;SDS011;43052;52.588;13.396;2022-12-08T02:13:40;18.83;;;10.45;;
57191;SDS011;43052;52.588;13.396;2022-12-08T02:16:10;14.07;;;8.45;;
57191;SDS011;43052;52.588;13.396;2022-12-08T02:19:04;17.17;;;8.38;;
57191;SDS011;43052;52.588;13.396;2022-12-08T02:21:37;16.58;;;8.23;;
57191;SDS011;43052;52.588;13.396;2022-12-08T02:24:18;15.48;;;7.85;;
57191;SDS011;43052;52.588;13.396;2022-12-08T02:30:02;13.23;;;7.22;;
57191;SDS011;43052;52.588;13.396;2022-12-08T02:35:38;12.90;;;7.70;;
57191;SDS011;43052;52.588;13.396;2022-12-08T02:38:24;14.68;;;8.48;;
57191;SDS011;43052;52.588;13.396;2022-12-08T02:40:59;14.05;;;7.40;;
57191;SDS011;43052;52.588;13.396;2022-12-08T02:43:43;14.88;;;7.68;;
57191;SDS011;43052;52.588;13.396;2022-12-08T02:46:12;14.63;;;7.32;;
57191;SDS011;43052;52.588;13.396;2022-12-08T02:48:42;13.48;;;8.40;;
57191;SDS011;43052;52.588;13.396;2022-12-08T02:51:08;15.82;;;8.70;;
57191;SDS011;43052;52.588;13.396;2022-12-08T02:53:33;14.98;;;7.72;;
57191;SDS011;43052;52.588;13.396;2022-12-08T02:56:07;13.65;;;8.13;;
57191;SDS011;43052;52.588;13.396;2022-12-08T02:58:49;14.90;;;7.95;;
57191;SDS011;43052;52.588;13.396;2022-12-08T03:01:36;15.23;;;8.27;;
57191;SDS011;43052;52.588;13.396;2022-12-08T03:10:22;15.40;;;8.50;;
57191;SDS011;43052;52.588;13.396;2022-12-08T03:13:00;14.85;;;8.10;;
57191;SDS011;43052;52.588;13.396;2022-12-08T03:15:31;12.60;;;7.25;;
57191;SDS011;43052;52.588;13.396;2022-12-08T03:17:59;16.83;;;8.85;;
57191;SDS011;43052;52.588;13.396;2022-12-08T03:20:25;14.80;;;7.90;;
57191;SDS011;43052;52.588;13.396;2022-12-08T03:22:53;15.40;;;8.32;;
57191;SDS011;43052;52.588;13.396;2022-12-08T03:25:22;12.30;;;6.82;;
57191;SDS011;43052;52.588;13.396;2022-12-08T03:27:49;12.60;;;7.45;;
57191;SDS011;43052;52.588;13.396;2022-12-08T03:30:15;10.82;;;6.53;;
57191;SDS011;43052;52.588;13.396;2022-12-08T03:35:28;11.38;;;6.68;;
57191;SDS011;43052;52.588;13.396;2022-12-08T03:38:04;11.07;;;6.47;;
57191;SDS011;43052;52.588;13.396;2022-12-08T03:40:34;12.13;;;6.18;;
57191;SDS011;43052;52.588;13.396;2022-12-08T03:43:00;11.25;;;6.15;;
57191;SDS011;43052;52.588;13.396;2022-12-08T03:45:26;11.93;;;5.85;;
57191;SDS011;43052;52.588;13.396;2022-12-08T03:47:51;11.30;;;6.32;;
57191;SDS011;43052;52.588;13.396;2022-12-08T03:50:16;11.63;;;5.65;;
57191;SDS011;43052;52.588;13.396;2022-12-08T03:52:42;8.93;;;5.32;;
57191;SDS011;43052;52.588;13.396;2022-12-08T03:55:07;9.82;;;5.55;;
57191;SDS011;43052;52.588;13.396;2022-12-08T03:57:33;9.32;;;5.60;;
57191;SDS011;43052;52.588;13.396;2022-12-08T03:59:58;10.20;;;5.03;;
57191;SDS011;43052;52.588;13.396;2022-12-08T04:02:23;9.88;;;5.20;;
57191;SDS011;43052;52.588;13.396;2022-12-08T04:04:48;9.70;;;5.72;;
57191;SDS011;43052;52.588;13.396;2022-12-08T04:07:14;10.52;;;5.72;;
57191;SDS011;43052;52.588;13.396;2022-12-08T04:09:39;10.88;;;6.18;;
57191;SDS011;43052;52.588;13.396;2022-12-08T04:12:05;10.43;;;5.68;;
57191;SDS011;43052;52.588;13.396;2022-12-08T04:14:31;11.40;;;6.10;;
57191;SDS011;43052;52.588;13.396;2022-12-08T04:16:56;10.43;;;5.63;;
57191;SDS011;43052;52.588;13.396;2022-12-08T04:19:22;12.00;;;5.60;;
57191;SDS011;43052;52.588;13.396;2022-12-08T04:21:47;13.13;;;7.18;;
57191;SDS011;43052;52.588;13.396;2022-12-08T04:24:12;11.50;;;6.50;;
57191;SDS011;43052;52.588;13.396;2022-12-08T04:26:37;12.68;;;6.88;;
57191;SDS011;43052;52.588;13.396;2022-12-08T04:29:03;14.25;;;7.13;;
57191;SDS011;43052;52.588;13.396;2022-12-08T04:31:28;11.50;;;6.90;;
57191;SDS011;43052;52.588;13.396;2022-12-08T04:33:53;13.88;;;7.80;;
57191;SDS011;43052;52.588;13.396;2022-12-08T04:36:19;12.45;;;7.18;;
57191;SDS011;43052;52.588;13.396;2022-12-08T04:38:44;12.63;;;6.68;;
57191;SDS011;43052;52.588;13.396;2022-12-08T04:41:09;13.82;;;7.38;;
57191;SDS011;43052;52.588;13.396;2022-12-08T04:43:34;14.57;;;7.43;;
57191;SDS011;43052;52.588;13.396;2022-12-08T04:46:00;12.25;;;6.40;;
57191;SDS011;43052;52.588;13.396;2022-12-08T04:48:26;12.45;;;7.10;;
57191;SDS011;43052;52.588;13.396;2022-12-08T04:50:51;12.55;;;7.30;;
57191;SDS011;43052;52.588;13.396;2022-12-08T04:53:16;12.38;;;7.18;;
57191;SDS011;43052;52.588;13.396;2022-12-08T04:55:42;11.85;;;6.90;;
57191;SDS011;43052;52.588;13.396;2022-12-08T04:58:10;12.23;;;7.13;;
57191;SDS011;43052;52.588;13.396;2022-12-08T05:00:37;13.55;;;7.05;;
57191;SDS011;43052;52.588;13.396;2022-12-08T05:03:03;13.63;;;7.82;;
57191;SDS011;43052;52.588;13.396;2022-12-08T05:05:28;14.18;;;7.43;;
57191;SDS011;43052;52.588;13.396;2022-12-08T05:07:53;13.32;;;7.80;;
57191;SDS011;43052;52.588;13.396;2022-12-08T05:10:18;14.43;;;8.07;;
57191;SDS011;43052;52.588;13.396;2022-12-08T05:12:44;13.57;;;8.65;;
57191;SDS011;43052;52.588;13.396;2022-12-08T05:15:09;14.02;;;7.53;;
57191;SDS011;43052;52.588;13.396;2022-12-08T05:17:34;14.32;;;8.23;;
57191;SDS011;43052;52.588;13.396;2022-12-08T05:19:59;16.63;;;8.80;;
57191;SDS011;43052;52.588;13.396;2022-12-08T05:22:25;15.13;;;8.35;;
57191;SDS011;43052;52.588;13.396;2022-12-08T05:24:50;15.38;;;8.60;;
57191;SDS011;43052;52.588;13.396;2022-12-08T05:27:15;17.48;;;9.48;;
57191;SDS011;43052;52.588;13.396;2022-12-08T05:29:41;15.20;;;8.70;;
57191;SDS011;43052;52.588;13.396;2022-12-08T05:32:06;17.13;;;9.73;;
57191;SDS011;43052;52.588;13.396;2022-12-08T05:34:31;16.15;;;9.55;;
57191;SDS011;43052;52.588;13.396;2022-12-08T05:36:56;17.45;;;9.73;;
57191;SDS011;43052;52.588;13.396;2022-12-08T05:39:22;21.42;;;10.45;;
57191;SDS011;43052;52.588;13.396;2022-12-08T05:41:47;16.52;;;9.30;;
57191;SDS011;43052;52.588;13.396;2022-12-08T05:44:12;19.13;;;10.30;;
57191;SDS011;43052;52.588;13.396;2022-12-08T05:46:38;20.23;;;10.45;;
57191;SDS011;43052;52.588;13.396;2022-12-08T05:49:03;17.65;;;10.05;;
57191;SDS011;43052;52.588;13.396;2022-12-08T05:51:29;18.23;;;9.13;;
57191;SDS011;43052;52.588;13.396;2022-12-08T05:53:54;18.58;;;9.93;;
57191;SDS011;43052;52.588;13.396;2022-12-08T05:56:20;17.70;;;10.18;;
57191;SDS011;43052;52.588;13.396;2022-12-08T05:58:45;21.10;;;11.15;;
57191;SDS011;43052;52.588;13.396;2022-12-08T06:01:24;19.70;;;9.73;;
57191;SDS011;43052;52.588;13.396;2022-12-08T06:03:51;18.38;;;11.05;;
57191;SDS011;43052;52.588;13.396;2022-12-08T06:06:17;20.63;;;12.10;;
57191;SDS011;43052;52.588;13.396;2022-12-08T06:08:43;19.70;;;10.48;;
57191;SDS011;43052;52.588;13.396;2022-12-08T06:11:09;19.92;;;10.80;;
57191;SDS011;43052;52.588;13.396;2022-12-08T06:13:34;21.30;;;10.88;;
57191;SDS011;43052;52.588;13.396;2022-12-08T06:16:03;20.40;;;11.02;;
57191;SDS011;43052;52.588;13.396;2022-12-08T06:18:31;21.50;;;11.07;;
57191;SDS011;43052;52.588;13.396;2022-12-08T06:21:01;22.70;;;12.10;;
57191;SDS011;43052;52.588;13.396;2022-12-08T06:23:30;20.05;;;10.52;;
57191;SDS011;43052;52.588;13.396;2022-12-08T06:25:59;25.75;;;12.52;;
57191;SDS011;43052;52.588;13.396;2022-12-08T06:28:29;25.52;;;13.27;;
57191;SDS011;43052;52.588;13.396;2022-12-08T06:30:55;19.85;;;11.40;;
57191;SDS011;43052;52.588;13.396;2022-12-08T06:33:20;21.63;;;12.15;;
57191;SDS011;43052;52.588;13.396;2022-12-08T06:35:46;23.90;;;12.52;;
57191;SDS011;43052;52.588;13.396;2022-12-08T06:38:11;21.98;;;11.98;;
57191;SDS011;43052;52.588;13.396;2022-12-08T06:40:36;23.48;;;12.32;;
57191;SDS011;43052;52.588;13.396;2022-12-08T06:43:01;23.58;;;13.13;;
57191;SDS011;43052;52.588;13.396;2022-12-08T06:45:26;22.63;;;12.68;;
57191;SDS011;43052;52.588;13.396;2022-12-08T06:47:52;21.63;;;12.50;;
57191;SDS011;43052;52.588;13.396;2022-12-08T06:50:17;21.50;;;11.40;;
57191;SDS011;43052;52.588;13.396;2022-12-08T06:52:42;26.83;;;13.25;;
57191;SDS011;43052;52.588;13.396;2022-12-08T06:55:09;23.88;;;12.82;;
57191;SDS011;43052;52.588;13.396;2022-12-08T06:57:35;25.40;;;11.85;;
57191;SDS011;43052;52.588;13.396;2022-12-08T07:00:00;23.10;;;13.57;;
57191;SDS011;43052;52.588;13.396;2022-12-08T07:02:25;22.25;;;12.95;;
57191;SDS011;43052;52.588;13.396;2022-12-08T07:04:51;23.77;;;12.60;;
57191;SDS011;43052;52.588;13.396;2022-12-08T07:07:16;25.55;;;13.43;;
57191;SDS011;43052;52.588;13.396;2022-12-08T07:09:41;24.63;;;12.50;;
57191;SDS011;43052;52.588;13.396;2022-12-08T07:12:06;27.42;;;13.75;;
57191;SDS011;43052;52.588;13.396;2022-12-08T07:14:32;25.30;;;13.02;;
57191;SDS011;43052;52.588;13.396;2022-12-08T07:16:57;24.23;;;13.57;;
57191;SDS011;43052;52.588;13.396;2022-12-08T07:19:22;27.00;;;13.18;;
57191;SDS011;43052;52.588;13.396;2022-12-08T07:21:47;24.80;;;13.50;;
57191;SDS011;43052;52.588;13.396;2022-12-08T07:24:13;22.80;;;12.15;;
57191;SDS011;43052;52.588;13.396;2022-12-08T07:26:38;24.60;;;13.55;;
57191;SDS011;43052;52.588;13.396;2022-12-08T07:29:04;21.23;;;12.88;;
57191;SDS011;43052;52.588;13.396;2022-12-08T07:31:29;23.33;;;12.73;;
57191;SDS011;43052;52.588;13.396;2022-12-08T07:33:55;23.88;;;12.45;;
57191;SDS011;43052;52.588;13.396;2022-12-08T07:36:21;24.17;;;12.07;;
57191;SDS011;43052;52.588;13.396;2022-12-08T07:38:46;21.52;;;11.95;;
57191;SDS011;43052;52.588;13.396;2022-12-08T07:41:13;23.55;;;12.63;;
57191;SDS011;43052;52.588;13.396;2022-12-08T07:43:42;23.83;;;12.00;;
57191;SDS011;43052;52.588;13.396;2022-12-08T07:46:11;20.50;;;11.77;;
57191;SDS011;43052;52.588;13.396;2022-12-08T07:48:40;23.92;;;12.23;;
57191;SDS011;43052;52.588;13.396;2022-12-08T07:51:05;22.70;;;13.00;;
57191;SDS011;43052;52.588;13.396;2022-12-08T07:53:31;26.77;;;12.00;;
57191;SDS011;43052;52.588;13.396;2022-12-08T07:55:57;21.95;;;10.93;;
57191;SDS011;43052;52.588;13.396;2022-12-08T07:58:23;25.23;;;11.90;;
57191;SDS011;43052;52.588;13.396;2022-12-08T08:00:48;19.90;;;10.32;;
57191;SDS011;43052;52.588;13.396;2022-12-08T08:03:13;22.05;;;11.00;;
57191;SDS011;43052;52.588;13.396;2022-12-08T08:05:39;19.10;;;10.38;;
57191;SDS011;43052;52.588;13.396;2022-12-08T08:08:04;20.02;;;10.55;;
57191;SDS011;43052;52.588;13.396;2022-12-08T08:10:29;22.52;;;10.98;;
57191;SDS011;43052;52.588;13.396;2022-12-08T08:12:58;25.30;;;11.57;;
57191;SDS011;43052;52.588;13.396;2022-12-08T08:15:24;19.58;;;10.82;;
57191;SDS011;43052;52.588;13.396;2022-12-08T08:17:50;17.83;;;10.38;;
57191;SDS011;43052;52.588;13.396;2022-12-08T08:20:16;21.60;;;10.63;;
57191;SDS011;43052;52.588;13.396;2022-12-08T08:22:41;20.90;;;11.23;;
57191;SDS011;43052;52.588;13.396;2022-12-08T08:25:07;19.95;;;10.88;;
57191;SDS011;43052;52.588;13.396;2022-12-08T08:27:32;19.17;;;10.70;;
57191;SDS011;43052;52.588;13.396;2022-12-08T08:29:58;22.33;;;10.98;;
57191;SDS011;43052;52.588;13.396;2022-12-08T08:32:23;19.63;;;10.80;;
57191;SDS011;43052;52.588;13.396;2022-12-08T08:34:49;19.08;;;9.85;;
57191;SDS011;43052;52.588;13.396;2022-12-08T08:37:15;20.13;;;10.70;;
57191;SDS011;43052;52.588;13.396;2022-12-08T08:39:40;21.48;;;10.55;;
57191;SDS011;43052;52.588;13.396;2022-12-08T08:42:06;20.52;;;11.27;;
57191;SDS011;43052;52.588;13.396;2022-12-08T08:44:32;18.77;;;10.77;;
57191;SDS011;43052;52.588;13.396;2022-12-08T08:46:57;21.60;;;11.07;;
57191;SDS011;43052;52.588;13.396;2022-12-08T08:49:22;16.98;;;9.82;;
57191;SDS011;43052;52.588;13.396;2022-12-08T08:51:47;19.38;;;11.23;;
57191;SDS011;43052;52.588;13.396;2022-12-08T08:54:13;21.00;;;12.13;;
57191;SDS011;43052;52.588;13.396;2022-12-08T08:56:39;20.38;;;11.07;;
57191;SDS011;43052;52.588;13.396;2022-12-08T08:59:04;23.63;;;10.50;;
57191;SDS011;43052;52.588;13.396;2022-12-08T09:01:30;19.10;;;10.10;;
57191;SDS011;43052;52.588;13.396;2022-12-08T09:03:55;17.35;;;10.25;;
57191;SDS011;43052;52.588;13.396;2022-12-08T09:06:21;20.67;;;10.95;;
57191;SDS011;43052;52.588;13.396;2022-12-08T09:08:47;16.67;;;9.95;;
57191;SDS011;43052;52.588;13.396;2022-12-08T09:11:13;16.20;;;10.05;;
57191;SDS011;43052;52.588;13.396;2022-12-08T09:13:38;20.45;;;10.25;;
57191;SDS011;43052;52.588;13.396;2022-12-08T09:16:05;19.13;;;10.98;;
57191;SDS011;43052;52.588;13.396;2022-12-08T09:18:31;17.02;;;10.02;;
57191;SDS011;43052;52.588;13.396;2022-12-08T09:21:02;18.45;;;10.13;;
57191;SDS011;43052;52.588;13.396;2022-12-08T09:23:29;15.15;;;8.75;;
57191;SDS011;43052;52.588;13.396;2022-12-08T09:25:54;16.65;;;10.00;;
57191;SDS011;43052;52.588;13.396;2022-12-08T09:28:19;16.30;;;9.18;;
57191;SDS011;43052;52.588;13.396;2022-12-08T09:30:45;18.70;;;9.82;;
57191;SDS011;43052;52.588;13.396;2022-12-08T09:33:10;16.48;;;9.30;;
57191;SDS011;43052;52.588;13.396;2022-12-08T09:35:35;18.15;;;10.00;;
57191;SDS011;43052;52.588;13.396;2022-12-08T09:38:00;18.70;;;9.88;;
57191;SDS011;43052;52.588;13.396;2022-12-08T09:40:26;16.92;;;10.05;;
57191;SDS011;43052;52.588;13.396;2022-12-08T09:42:58;19.50;;;9.80;;
57191;SDS011;43052;52.588;13.396;2022-12-08T09:45:34;16.05;;;9.40;;
57191;SDS011;43052;52.588;13.396;2022-12-08T09:48:09;20.10;;;10.23;;
57191;SDS011;43052;52.588;13.396;2022-12-08T09:50:55;17.17;;;10.43;;
57191;SDS011;43052;52.588;13.396;2022-12-08T09:53:24;15.80;;;9.75;;
57191;SDS011;43052;52.588;13.396;2022-12-08T09:55:53;16.90;;;9.45;;
57191;SDS011;43052;52.588;13.396;2022-12-08T09:58:26;14.85;;;9.07;;
57191;SDS011;43052;52.588;13.396;2022-12-08T10:00:59;21.75;;;10.88;;
57191;SDS011;43052;52.588;13.396;2022-12-08T10:03:27;16.80;;;9.40;;
57191;SDS011;43052;52.588;13.396;2022-12-08T10:06:00;17.50;;;10.90;;
57191;SDS011;43052;52.588;13.396;2022-12-08T10:08:45;22.33;;;9.80;;
57191;SDS011;43052;52.588;13.396;2022-12-08T10:11:25;18.60;;;10.93;;
57191;SDS011;43052;52.588;13.396;2022-12-08T10:14:15;17.52;;;9.50;;
57191;SDS011;43052;52.588;13.396;2022-12-08T10:16:57;14.82;;;9.63;;
57191;SDS011;43052;52.588;13.396;2022-12-08T10:19:27;16.40;;;8.50;;
57191;SDS011;43052;52.588;13.396;2022-12-08T10:21:52;16.63;;;9.70;;
57191;SDS011;43052;52.588;13.396;2022-12-08T10:24:37;17.08;;;10.20;;
57191;SDS011;43052;52.588;13.396;2022-12-08T10:27:09;17.25;;;9.50;;
57191;SDS011;43052;52.588;13.396;2022-12-08T10:29:40;13.90;;;9.05;;
57191;SDS011;43052;52.588;13.396;2022-12-08T10:32:08;17.73;;;10.30;;
57191;SDS011;43052;52.588;13.396;2022-12-08T10:34:58;17.23;;;9.48;;
57191;SDS011;43052;52.588;13.396;2022-12-08T10:37:36;15.52;;;9.00;;
57191;SDS011;43052;52.588;13.396;2022-12-08T10:42:48;16.13;;;9.20;;
57191;SDS011;43052;52.588;13.396;2022-12-08T10:45:19;14.38;;;9.07;;
57191;SDS011;43052;52.588;13.396;2022-12-08T10:47:55;15.70;;;8.85;;
57191;SDS011;43052;52.588;13.396;2022-12-08T10:50:28;17.98;;;9.45;;
57191;SDS011;43052;52.588;13.396;2022-12-08T10:52:59;14.82;;;9.07;;
57191;SDS011;43052;52.588;13.396;2022-12-08T10:55:38;13.80;;;9.10;;
57191;SDS011;43052;52.588;13.396;2022-12-08T10:59:10;14.15;;;8.98;;
57191;SDS011;43052;52.588;13.396;2022-12-08T11:03:49;16.67;;;9.35;;
57191;SDS011;43052;52.588;13.396;2022-12-08T11:08:54;12.10;;;7.57;;
57191;SDS011;43052;52.588;13.396;2022-12-08T11:11:22;12.07;;;7.45;;
57191;SDS011;43052;52.588;13.396;2022-12-08T11:14:05;12.63;;;7.78;;
57191;SDS011;43052;52.588;13.396;2022-12-08T11:16:32;13.52;;;8.23;;
57191;SDS011;43052;52.588;13.396;2022-12-08T11:18:57;13.40;;;8.75;;
57191;SDS011;43052;52.588;13.396;2022-12-08T11:21:29;11.52;;;7.00;;
57191;SDS011;43052;52.588;13.396;2022-12-08T11:23:59;14.90;;;7.55;;
57191;SDS011;43052;52.588;13.396;2022-12-08T11:26:44;12.75;;;7.50;;
57191;SDS011;43052;52.588;13.396;2022-12-08T11:29:13;13.00;;;6.95;;
57191;SDS011;43052;52.588;13.396;2022-12-08T11:31:42;10.75;;;6.80;;
57191;SDS011;43052;52.588;13.396;2022-12-08T11:34:16;12.43;;;7.32;;
57191;SDS011;43052;52.588;13.396;2022-12-08T11:36:52;11.50;;;6.88;;
57191;SDS011;43052;52.588;13.396;2022-12-08T11:39:19;10.73;;;6.68;;
57191;SDS011;43052;52.588;13.396;2022-12-08T11:41:46;10.38;;;6.30;;
57191;SDS011;43052;52.588;13.396;2022-12-08T11:46:59;10.98;;;6.40;;
57191;SDS011;43052;52.588;13.396;2022-12-08T11:49:38;11.50;;;6.80;;
57191;SDS011;43052;52.588;13.396;2022-12-08T11:52:06;13.70;;;7.78;;
57191;SDS011;43052;52.588;13.396;2022-12-08T11:54:44;12.75;;;7.60;;
57191;SDS011;43052;52.588;13.396;2022-12-08T11:57:14;11.95;;;7.20;;
57191;SDS011;43052;52.588;13.396;2022-12-08T11:59:49;12.18;;;7.20;;
57191;SDS011;43052;52.588;13.396;2022-12-08T12:02:17;12.67;;;7.80;;
57191;SDS011;43052;52.588;13.396;2022-12-08T12:07:53;14.98;;;7.75;;
57191;SDS011;43052;52.588;13.396;2022-12-08T12:10:31;11.88;;;7.43;;
57191;SDS011;43052;52.588;13.396;2022-12-08T12:13:11;13.85;;;7.55;;
57191;SDS011;43052;52.588;13.396;2022-12-08T12:16:08;13.82;;;7.82;;
57191;SDS011;43052;52.588;13.396;2022-12-08T12:18:54;14.30;;;8.30;;
57191;SDS011;43052;52.588;13.396;2022-12-08T12:21:36;12.85;;;8.02;;
57191;SDS011;43052;52.588;13.396;2022-12-08T12:24:06;14.90;;;8.55;;
57191;SDS011;43052;52.588;13.396;2022-12-08T12:26:48;14.23;;;8.60;;
57191;SDS011;43052;52.588;13.396;2022-12-08T12:29:31;13.95;;;8.35;;
57191;SDS011;43052;52.588;13.396;2022-12-08T12:32:02;15.93;;;9.15;;
57191;SDS011;43052;52.588;13.396;2022-12-08T12:34:49;13.27;;;8.10;;
57191;SDS011;43052;52.588;13.396;2022-12-08T12:37:23;14.23;;;8.82;;
57191;SDS011;43052;52.588;13.396;2022-12-08T12:45:10;16.73;;;8.90;;
57191;SDS011;43052;52.588;13.396;2022-12-08T12:47:47;17.00;;;9.38;;
57191;SDS011;43052;52.588;13.396;2022-12-08T12:50:36;16.52;;;9.63;;
57191;SDS011;43052;52.588;13.396;2022-12-08T12:53:04;14.07;;;8.40;;
57191;SDS011;43052;52.588;13.396;2022-12-08T12:55:50;14.38;;;8.63;;
57191;SDS011;43052;52.588;13.396;2022-12-08T13:00:55;14.27;;;8.68;;
57191;SDS011;43052;52.588;13.396;2022-12-08T13:03:40;16.08;;;8.70;;
57191;SDS011;43052;52.588;13.396;2022-12-08T13:06:06;12.00;;;7.93;;
57191;SDS011;43052;52.588;13.396;2022-12-08T13:08:36;13.63;;;7.82;;
57191;SDS011;43052;52.588;13.396;2022-12-08T13:11:04;12.38;;;8.40;;
57191;SDS011;43052;52.588;13.396;2022-12-08T13:13:33;13.10;;;7.93;;
57191;SDS011;43052;52.588;13.396;2022-12-08T13:18:33;15.43;;;9.02;;
57191;SDS011;43052;52.588;13.396;2022-12-08T13:26:09;13.35;;;7.78;;
57191;SDS011;43052;52.588;13.396;2022-12-08T13:33:59;12.13;;;7.22;;
57191;SDS011;43052;52.588;13.396;2022-12-08T13:36:25;9.88;;;6.38;;
57191;SDS011;43052;52.588;13.396;2022-12-08T13:38:56;12.02;;;7.60;;
57191;SDS011;43052;52.588;13.396;2022-12-08T13:41:27;9.18;;;6.28;;
57191;SDS011;43052;52.588;13.396;2022-12-08T13:43:59;11.27;;;7.03;;
57191;SDS011;43052;52.588;13.396;2022-12-08T13:46:42;9.68;;;6.78;;
57191;SDS011;43052;52.588;13.396;2022-12-08T13:49:14;11.27;;;7.27;;
57191;SDS011;43052;52.588;13.396;2022-12-08T13:51:44;11.85;;;7.88;;
57191;SDS011;43052;52.588;13.396;2022-12-08T13:54:15;10.30;;;7.00;;
57191;SDS011;43052;52.588;13.396;2022-12-08T13:56:44;9.82;;;6.63;;
57191;SDS011;43052;52.588;13.396;2022-12-08T14:01:52;13.85;;;7.47;;
57191;SDS011;43052;52.588;13.396;2022-12-08T14:04:19;13.52;;;8.43;;
57191;SDS011;43052;52.588;13.396;2022-12-08T14:06:47;14.60;;;9.23;;
57191;SDS011;43052;52.588;13.396;2022-12-08T14:09:21;12.60;;;8.25;;
57191;SDS011;43052;52.588;13.396;2022-12-08T14:11:55;14.27;;;8.13;;
57191;SDS011;43052;52.588;13.396;2022-12-08T14:14:25;15.55;;;8.60;;
57191;SDS011;43052;52.588;13.396;2022-12-08T14:16:54;13.65;;;8.45;;
57191;SDS011;43052;52.588;13.396;2022-12-08T14:19:22;12.80;;;8.45;;
57191;SDS011;43052;52.588;13.396;2022-12-08T14:21:50;14.25;;;9.40;;
57191;SDS011;43052;52.588;13.396;2022-12-08T14:24:20;14.25;;;10.65;;
57191;SDS011;43052;52.588;13.396;2022-12-08T14:26:46;13.25;;;9.25;;
57191;SDS011;43052;52.588;13.396;2022-12-08T14:32:18;13.65;;;8.80;;
57191;SDS011;43052;52.588;13.396;2022-12-08T14:37:48;13.10;;;8.55;;
57191;SDS011;43052;52.588;13.396;2022-12-08T14:40:21;12.57;;;8.57;;
57191;SDS011;43052;52.588;13.396;2022-12-08T14:45:31;12.30;;;8.77;;
57191;SDS011;43052;52.588;13.396;2022-12-08T14:53:28;13.02;;;9.38;;
57191;SDS011;43052;52.588;13.396;2022-12-08T14:56:19;15.05;;;9.63;;
57191;SDS011;43052;52.588;13.396;2022-12-08T14:58:47;15.80;;;10.35;;
57191;SDS011;43052;52.588;13.396;2022-12-08T15:01:16;16.02;;;11.43;;
57191;SDS011;43052;52.588;13.396;2022-12-08T15:03:45;19.65;;;12.57;;
57191;SDS011;43052;52.588;13.396;2022-12-08T15:06:12;17.95;;;12.25;;
57191;SDS011;43052;52.588;13.396;2022-12-08T15:08:51;14.18;;;9.63;;
57191;SDS011;43052;52.588;13.396;2022-12-08T15:13:47;16.42;;;9.70;;
57191;SDS011;43052;52.588;13.396;2022-12-08T15:19:02;17.75;;;10.57;;
57191;SDS011;43052;52.588;13.396;2022-12-08T15:21:31;16.80;;;10.65;;
57191;SDS011;43052;52.588;13.396;2022-12-08T15:24:00;15.07;;;9.27;;
57191;SDS011;43052;52.588;13.396;2022-12-08T15:26:26;15.88;;;10.48;;
57191;SDS011;43052;52.588;13.396;2022-12-08T15:28:52;20.60;;;13.35;;
57191;SDS011;43052;52.588;13.396;2022-12-08T15:31:17;16.05;;;10.35;;
57191;SDS011;43052;52.588;13.396;2022-12-08T15:33:43;18.00;;;10.68;;
57191;SDS011;43052;52.588;13.396;2022-12-08T15:36:08;17.08;;;11.05;;
57191;SDS011;43052;52.588;13.396;2022-12-08T15:38:34;17.90;;;12.02;;
57191;SDS011;43052;52.588;13.396;2022-12-08T15:40:59;20.80;;;12.07;;
57191;SDS011;43052;52.588;13.396;2022-12-08T15:43:25;19.00;;;10.93;;